createdAt,value
2022-12-15T00:00:25.981Z,50.45
2022-12-15T00:03:48.863Z,49.11
2022-12-15T00:07:12.058Z,49.10
2022-12-15T00:10:34.696Z,49.82
2022-12-15T00:13:57.525Z,48.84
2022-12-15T00:17:20.400Z,48.45
2022-12-15T00:20:43.528Z,48.23
2022-12-15T00:24:06.379Z,48.57
2022-12-15T00:27:29.005Z,46.17
2022-12-15T00:30:53.228Z,45.12
2022-12-15T00:34:17.553Z,45.36
2022-12-15T00:37:40.345Z,46.68
2022-12-15T00:40:44.567Z,43.25
2022-12-15T00:43:49.212Z,42.60
2022-12-15T00:46:56.820Z,44.46
2022-12-15T00:50:20.239Z,43.81
2022-12-15T00:53:44.347Z,42.92
2022-12-15T00:57:07.333Z,42.62
2022-12-15T01:00:30.876Z,40.87
2022-12-15T01:03:53.671Z,39.57
2022-12-15T01:07:16.682Z,41.42
2022-12-15T01:10:39.690Z,41.11
2022-12-15T01:14:02.725Z,40.63
2022-12-15T01:17:26.160Z,42.22
2022-12-15T01:20:33.541Z,41.19
2022-12-15T01:23:39.266Z,40.17
2022-12-15T01:26:43.664Z,39.97
2022-12-15T01:29:48.151Z,40.26
2022-12-15T01:32:53.280Z,41.07
2022-12-15T01:35:58.624Z,40.31
2022-12-15T01:39:02.831Z,39.38
2022-12-15T01:42:07.263Z,39.70
2022-12-15T01:45:30.167Z,39.39
2022-12-15T01:48:48.466Z,38.77
2022-12-15T01:51:58.967Z,39.29
2022-12-15T01:55:03.514Z,39.65
2022-12-15T01:58:11.272Z,39.57
2022-12-15T02:01:15.983Z,40.86
2022-12-15T02:04:24.062Z,40.38
2022-12-15T02:07:28.733Z,39.66
2022-12-15T02:10:45.167Z,39.97
2022-12-15T02:14:10.614Z,40.05
2022-12-15T02:17:50.308Z,39.32
2022-12-15T02:21:06.913Z,39.58
2022-12-15T02:24:20.004Z,39.55
2022-12-15T02:27:42.908Z,39.18
2022-12-15T02:31:13.474Z,40.87
2022-12-15T02:34:28.119Z,41.13
2022-12-15T02:37:36.563Z,41.39
2022-12-15T02:40:41.571Z,40.26
2022-12-15T02:43:48.418Z,40.97
2022-12-15T02:47:28.788Z,41.22
2022-12-15T02:50:36.042Z,43.16
2022-12-15T02:53:49.294Z,41.73
2022-12-15T02:57:26.419Z,41.55
2022-12-15T03:00:34.698Z,41.80
2022-12-15T03:03:40.406Z,42.17
2022-12-15T03:06:45.087Z,42.38
2022-12-15T03:09:49.710Z,42.23
2022-12-15T03:12:55.553Z,41.67
2022-12-15T03:16:02.591Z,42.48
2022-12-15T03:19:07.187Z,42.52
2022-12-15T03:22:11.756Z,42.38
2022-12-15T03:25:16.339Z,42.44
2022-12-15T03:28:20.812Z,43.41
2022-12-15T03:31:25.371Z,42.51
2022-12-15T03:34:29.821Z,43.21
2022-12-15T03:37:34.396Z,43.51
2022-12-15T03:40:40.277Z,43.03
2022-12-15T03:43:44.680Z,43.21
2022-12-15T03:46:49.201Z,43.36
2022-12-15T03:49:53.726Z,43.04
2022-12-15T03:53:00.578Z,42.95
2022-12-15T03:56:05.425Z,42.83
2022-12-15T03:59:10.080Z,42.53
2022-12-15T04:02:14.689Z,43.16
2022-12-15T04:05:34.179Z,44.45
2022-12-15T04:08:38.678Z,42.91
2022-12-15T04:11:43.106Z,44.35
2022-12-15T04:14:47.657Z,43.51
2022-12-15T04:17:54.593Z,43.03
2022-12-15T04:20:59.159Z,42.51
2022-12-15T04:24:22.282Z,43.65
2022-12-15T04:27:45.190Z,43.10
2022-12-15T04:31:16.105Z,43.67
2022-12-15T04:34:41.820Z,42.94
2022-12-15T04:38:04.662Z,42.93
2022-12-15T04:41:27.266Z,42.75
2022-12-15T04:44:50.607Z,42.10
2022-12-15T04:48:13.471Z,42.84
2022-12-15T04:51:36.297Z,42.81
2022-12-15T04:54:59.212Z,42.57
2022-12-15T04:58:29.303Z,42.97
2022-12-15T05:01:53.194Z,43.54
2022-12-15T05:05:16.093Z,42.89
2022-12-15T05:08:38.706Z,43.16
2022-12-15T05:12:01.703Z,42.25
2022-12-15T05:15:24.975Z,42.42
2022-12-15T05:18:48.027Z,42.96
2022-12-15T05:22:10.753Z,43.33
2022-12-15T05:25:33.847Z,43.04
2022-12-15T05:28:57.061Z,43.69
2022-12-15T05:32:01.699Z,43.45
2022-12-15T05:35:06.935Z,42.43
2022-12-15T05:38:11.451Z,43.49
2022-12-15T05:41:15.745Z,43.45
2022-12-15T05:44:20.841Z,43.29
2022-12-15T05:47:24.975Z,44.70
2022-12-15T05:50:29.363Z,44.44
2022-12-15T05:53:34.053Z,44.35
2022-12-15T05:56:39.287Z,44.29
2022-12-15T05:59:43.670Z,43.24
2022-12-15T06:02:48.218Z,43.86
2022-12-15T06:05:56.559Z,43.99
2022-12-15T06:09:01.191Z,44.84
2022-12-15T06:12:05.779Z,45.42
2022-12-15T06:15:11.018Z,45.08
2022-12-15T06:18:15.218Z,45.88
2022-12-15T06:21:25.410Z,45.49
2022-12-15T06:24:29.924Z,45.07
2022-12-15T06:27:37.781Z,45.45
2022-12-15T06:30:42.811Z,46.03
2022-12-15T06:33:47.415Z,45.23
2022-12-15T06:36:51.709Z,45.78
2022-12-15T06:39:56.266Z,46.32
2022-12-15T06:43:00.611Z,47.07
2022-12-15T06:46:05.558Z,46.92
2022-12-15T06:49:10.647Z,46.46
2022-12-15T06:52:15.191Z,46.44
2022-12-15T06:55:19.535Z,46.88
2022-12-15T06:58:23.817Z,46.72
2022-12-15T07:01:28.953Z,47.03
2022-12-15T07:04:34.471Z,47.21
2022-12-15T07:07:38.978Z,46.85
2022-12-15T07:10:45.191Z,46.59
2022-12-15T07:13:54.259Z,46.71
2022-12-15T07:16:58.531Z,47.06
2022-12-15T07:20:03.134Z,47.14
2022-12-15T07:23:10.443Z,47.49
2022-12-15T07:26:14.979Z,46.76
2022-12-15T07:29:23.234Z,47.54
2022-12-15T07:32:28.129Z,47.42
2022-12-15T07:35:32.739Z,47.56
2022-12-15T07:38:37.380Z,47.85
2022-12-15T07:41:41.703Z,48.09
2022-12-15T07:44:47.319Z,47.92
2022-12-15T07:47:54.761Z,48.89
2022-12-15T07:51:08.532Z,48.66
2022-12-15T07:54:16.440Z,48.56
2022-12-15T07:57:20.775Z,48.35
2022-12-15T08:00:25.127Z,49.22
2022-12-15T08:03:31.135Z,48.56
2022-12-15T08:06:35.743Z,48.67
2022-12-15T08:09:40.226Z,49.16
2022-12-15T08:12:44.843Z,48.51
2022-12-15T08:15:49.197Z,48.18
2022-12-15T08:18:53.832Z,48.14
2022-12-15T08:21:59.441Z,48.40
2022-12-15T08:25:03.892Z,48.73
2022-12-15T08:28:08.782Z,48.55
2022-12-15T08:31:18.981Z,48.12
2022-12-15T08:34:23.479Z,48.44
2022-12-15T08:37:27.912Z,48.31
2022-12-15T08:40:32.584Z,48.48
2022-12-15T08:43:41.195Z,47.95
2022-12-15T08:46:50.075Z,47.99
2022-12-15T08:49:55.494Z,47.81
2022-12-15T08:53:28.912Z,48.02
2022-12-15T08:56:27.084Z,48.26
2022-12-15T08:59:31.612Z,48.22
2022-12-15T09:02:36.315Z,48.29
2022-12-15T09:05:40.848Z,48.75
2022-12-15T09:08:50.234Z,48.66
2022-12-15T09:11:55.140Z,48.39
2022-12-15T09:14:59.799Z,47.83
2022-12-15T09:18:04.740Z,48.23
2022-12-15T09:21:09.149Z,47.29
2022-12-15T09:24:23.213Z,47.70
2022-12-15T09:27:35.114Z,47.63
2022-12-15T09:30:39.757Z,47.88
2022-12-15T09:33:45.358Z,47.96
2022-12-15T09:36:49.794Z,47.12
2022-12-15T09:39:54.067Z,48.20
2022-12-15T09:43:25.620Z,48.57
2022-12-15T09:46:29.224Z,47.67
2022-12-15T09:49:58.090Z,46.97
2022-12-15T09:53:13.317Z,47.08
2022-12-15T09:56:56.483Z,47.22
2022-12-15T10:00:26.277Z,46.99
2022-12-15T10:03:56.388Z,47.25
2022-12-15T10:07:23.603Z,47.64
2022-12-15T10:11:02.701Z,46.51
2022-12-15T10:14:31.321Z,46.78
2022-12-15T10:18:23.296Z,46.42
2022-12-15T10:21:30.286Z,45.92
2022-12-15T10:28:17.229Z,46.09
2022-12-15T10:32:08.330Z,45.90
2022-12-15T10:35:32.358Z,46.31
2022-12-15T10:38:39.577Z,46.59
2022-12-15T10:41:44.952Z,45.66
2022-12-15T10:44:54.995Z,46.30
2022-12-15T10:48:00.410Z,46.82
2022-12-15T10:51:49.140Z,46.68
2022-12-15T10:54:56.531Z,46.87
2022-12-15T10:58:03.688Z,46.76
2022-12-15T11:01:18.676Z,47.10
2022-12-15T11:04:34.679Z,47.10
2022-12-15T11:07:43.384Z,46.57
2022-12-15T11:11:14.913Z,46.59
2022-12-15T11:14:28.185Z,47.25
2022-12-15T11:17:43.139Z,47.10
2022-12-15T11:21:22.490Z,46.93
2022-12-15T11:25:08.169Z,46.80
2022-12-15T11:28:26.602Z,46.77
2022-12-15T11:31:40.663Z,47.78
2022-12-15T11:34:48.416Z,47.11
2022-12-15T11:38:31.084Z,47.28
2022-12-15T11:41:58.322Z,47.23
2022-12-15T11:45:27.824Z,47.26
2022-12-15T11:48:59.287Z,47.57
2022-12-15T11:52:16.744Z,47.22
2022-12-15T11:55:51.613Z,47.52
2022-12-15T11:59:32.088Z,47.73
2022-12-15T12:03:04.169Z,47.85
2022-12-15T12:06:21.383Z,47.95
2022-12-15T12:09:28.783Z,47.62
2022-12-15T12:12:46.621Z,47.63
2022-12-15T12:16:31.855Z,48.39
2022-12-15T12:19:50.648Z,48.05
2022-12-15T12:22:58.444Z,48.11
2022-12-15T12:26:13.427Z,47.69
2022-12-15T12:29:24.893Z,47.83
2022-12-15T12:32:36.103Z,48.18
2022-12-15T12:35:52.247Z,48.12
2022-12-15T12:38:57.961Z,46.62
2022-12-15T12:42:14.213Z,46.91
2022-12-15T12:45:20.798Z,46.88
2022-12-15T12:49:00.036Z,46.19
2022-12-15T12:52:58.815Z,46.05
2022-12-15T12:56:03.951Z,45.97
2022-12-15T12:59:30.234Z,45.64
2022-12-15T13:02:40.459Z,45.26
2022-12-15T13:05:50.380Z,45.26
2022-12-15T13:08:56.716Z,45.23
2022-12-15T13:12:20.815Z,45.06
2022-12-15T13:15:32.108Z,45.35
2022-12-15T13:19:10.644Z,44.76
2022-12-15T13:22:44.639Z,45.74
2022-12-15T13:25:59.457Z,46.48
2022-12-15T13:29:04.047Z,45.54
2022-12-15T13:32:35.864Z,46.57
2022-12-15T13:35:43.493Z,47.83
2022-12-15T13:38:57.693Z,48.69
2022-12-15T13:42:32.764Z,49.44
2022-12-15T13:45:50.224Z,49.91
2022-12-15T13:49:11.209Z,49.70
2022-12-15T13:52:44.314Z,49.83
2022-12-15T13:56:36.800Z,49.24
2022-12-15T13:59:51.966Z,49.21
2022-12-15T14:03:14.533Z,48.40
2022-12-15T14:06:19.127Z,48.83
2022-12-15T14:09:35.108Z,49.46
2022-12-15T14:12:41.651Z,48.81
2022-12-15T14:15:50.773Z,48.19
2022-12-15T14:19:14.821Z,48.31
2022-12-15T14:22:29.700Z,47.60
2022-12-15T14:25:34.757Z,48.65
2022-12-15T14:28:45.177Z,49.00
2022-12-15T14:31:56.045Z,49.00
2022-12-15T14:35:00.416Z,49.08
2022-12-15T14:38:09.717Z,49.02
2022-12-15T14:41:38.981Z,49.62
2022-12-15T14:44:49.931Z,49.81
2022-12-15T14:51:47.655Z,49.69
2022-12-15T14:54:58.086Z,50.57
2022-12-15T14:58:15.188Z,50.25
2022-12-15T15:01:30.908Z,50.69
2022-12-15T15:04:35.858Z,50.31
2022-12-15T15:07:41.599Z,49.85
2022-12-15T15:10:46.238Z,51.28
2022-12-15T15:13:56.101Z,51.36
2022-12-15T15:17:05.684Z,50.67
2022-12-15T15:20:30.369Z,50.57
2022-12-15T15:23:35.292Z,51.15
2022-12-15T15:26:41.815Z,51.03
2022-12-15T15:29:46.343Z,50.35
2022-12-15T15:32:52.958Z,51.50
2022-12-15T15:35:59.637Z,50.70
2022-12-15T15:39:11.560Z,49.72
2022-12-15T15:42:16.256Z,50.09
2022-12-15T15:45:20.980Z,49.44
2022-12-15T15:48:31.581Z,50.24
2022-12-15T15:51:38.631Z,50.51
2022-12-15T15:54:43.627Z,49.70
2022-12-15T15:57:48.160Z,49.46
2022-12-15T16:00:54.412Z,49.37
2022-12-15T16:03:59.376Z,49.64
2022-12-15T16:07:05.431Z,49.25
2022-12-15T16:10:19.402Z,48.91
2022-12-15T16:13:26.233Z,48.83
2022-12-15T16:16:34.529Z,49.34
2022-12-15T16:19:39.921Z,49.28
2022-12-15T16:23:04.801Z,49.81
2022-12-15T16:26:18.789Z,50.29
2022-12-15T16:29:23.404Z,49.28
2022-12-15T16:32:27.944Z,49.82
2022-12-15T16:35:32.424Z,49.20
2022-12-15T16:38:38.911Z,49.47
2022-12-15T16:41:43.298Z,49.99
2022-12-15T16:44:47.772Z,49.95
2022-12-15T16:47:52.868Z,49.29
2022-12-15T16:51:00.136Z,49.93
2022-12-15T16:54:05.092Z,49.32
2022-12-15T16:57:13.121Z,49.17
2022-12-15T17:00:24.034Z,49.57
2022-12-15T17:03:28.705Z,49.36
2022-12-15T17:06:33.110Z,48.67
2022-12-15T17:09:38.898Z,49.28
2022-12-15T17:12:43.936Z,48.44
2022-12-15T17:15:49.042Z,48.33
2022-12-15T17:18:53.953Z,47.61
2022-12-15T17:21:59.029Z,47.50
2022-12-15T17:25:03.459Z,47.59
2022-12-15T17:28:15.146Z,47.59
2022-12-15T17:31:21.812Z,47.70
2022-12-15T17:34:35.308Z,47.94
2022-12-15T17:37:41.711Z,48.33
2022-12-15T17:40:47.720Z,47.95
2022-12-15T17:44:09.815Z,47.93
2022-12-15T17:47:18.113Z,49.34
2022-12-15T17:50:22.748Z,49.13
2022-12-15T17:53:31.605Z,49.08
2022-12-15T17:56:36.216Z,49.36
2022-12-15T17:59:40.663Z,49.13
2022-12-15T18:02:45.919Z,49.81
2022-12-15T18:05:54.048Z,49.53
2022-12-15T18:08:58.525Z,48.50
2022-12-15T18:12:03.273Z,49.24
2022-12-15T18:15:26.150Z,49.56
2022-12-15T18:18:30.646Z,48.40
2022-12-15T18:21:35.686Z,49.24
2022-12-15T18:24:40.045Z,48.65
2022-12-15T18:27:45.457Z,47.66
2022-12-15T18:30:52.166Z,47.48
2022-12-15T18:34:04.531Z,48.41
2022-12-15T18:37:20.597Z,48.22
2022-12-15T18:40:28.868Z,48.66
2022-12-15T18:43:35.638Z,48.37
2022-12-15T18:46:44.645Z,47.32
2022-12-15T18:49:52.529Z,47.64
2022-12-15T18:53:02.729Z,48.37
2022-12-15T18:56:09.682Z,48.06
2022-12-15T18:59:16.467Z,48.38
2022-12-15T19:02:21.013Z,49.00
2022-12-15T19:05:33.407Z,50.18
2022-12-15T19:08:40.121Z,50.52
2022-12-15T19:12:16.645Z,50.15
2022-12-15T19:15:22.996Z,51.07
2022-12-15T19:18:46.551Z,51.21
2022-12-15T19:21:59.620Z,50.54
2022-12-15T19:25:08.634Z,50.63
2022-12-15T19:28:20.498Z,49.93
2022-12-15T19:31:25.135Z,50.05
2022-12-15T19:34:29.492Z,48.61
2022-12-15T19:37:36.039Z,48.78
2022-12-15T19:40:41.802Z,48.59
2022-12-15T19:43:46.409Z,48.05
2022-12-15T19:46:50.985Z,49.06
2022-12-15T19:49:55.413Z,48.43
2022-12-15T19:53:02.805Z,48.35
2022-12-15T19:56:08.072Z,47.64
2022-12-15T19:59:26.937Z,46.77
2022-12-15T20:02:31.904Z,47.13
2022-12-15T20:05:37.515Z,48.05
2022-12-15T20:08:44.196Z,47.32
2022-12-15T20:11:48.731Z,47.09
2022-12-15T20:14:53.387Z,47.28
2022-12-15T20:17:58.160Z,47.26
2022-12-15T20:21:02.653Z,46.72
2022-12-15T20:24:10.533Z,47.37
2022-12-15T20:27:17.779Z,47.23
2022-12-15T20:30:26.309Z,46.87
2022-12-15T20:33:31.261Z,47.87
2022-12-15T20:36:37.368Z,48.04
2022-12-15T20:39:41.721Z,47.69
2022-12-15T20:42:46.139Z,48.04
2022-12-15T20:45:59.310Z,47.51
2022-12-15T20:49:05.414Z,47.75
2022-12-15T20:52:19.811Z,47.36
2022-12-15T20:55:24.683Z,47.84
2022-12-15T20:58:33.107Z,47.63
2022-12-15T21:01:42.353Z,47.92
2022-12-15T21:04:47.152Z,47.33
2022-12-15T21:07:51.275Z,48.31
2022-12-15T21:11:00.995Z,47.14
2022-12-15T21:14:05.414Z,47.23
2022-12-15T21:17:18.674Z,46.57
2022-12-15T21:20:23.222Z,47.08
2022-12-15T21:23:32.714Z,47.15
2022-12-15T21:26:37.236Z,47.17
2022-12-15T21:29:43.307Z,46.68
2022-12-15T21:32:51.930Z,46.12
2022-12-15T21:35:56.372Z,46.82
2022-12-15T21:39:00.973Z,47.24
2022-12-15T21:42:07.184Z,45.96
2022-12-15T21:45:20.696Z,47.00
2022-12-15T21:48:43.203Z,47.67
2022-12-15T21:51:56.777Z,48.93
2022-12-15T21:55:01.245Z,48.70
2022-12-15T21:58:19.722Z,48.98
2022-12-15T22:01:29.378Z,49.06
2022-12-15T22:04:36.264Z,49.11
2022-12-15T22:07:40.534Z,48.59
2022-12-15T22:10:46.482Z,47.82
2022-12-15T22:13:53.166Z,48.88
2022-12-15T22:17:01.456Z,49.57
2022-12-15T22:20:23.478Z,48.28
2022-12-15T22:23:27.828Z,48.83
2022-12-15T22:26:33.196Z,49.00
2022-12-15T22:29:38.786Z,49.00
2022-12-15T22:32:43.314Z,48.45
2022-12-15T22:35:47.888Z,48.33
2022-12-15T22:38:52.407Z,48.81
2022-12-15T22:41:56.833Z,49.36
2022-12-15T22:45:01.217Z,49.47
2022-12-15T22:48:07.662Z,48.65
2022-12-15T22:51:14.720Z,48.50
2022-12-15T22:54:20.906Z,48.60
2022-12-15T22:57:28.080Z,49.16
2022-12-15T23:00:32.735Z,48.81
2022-12-15T23:03:37.371Z,49.59
2022-12-15T23:06:42.373Z,47.70
2022-12-15T23:09:47.005Z,48.35
2022-12-15T23:12:55.194Z,47.97
2022-12-15T23:16:18.355Z,48.47
2022-12-15T23:19:25.819Z,48.33
2022-12-15T23:22:30.240Z,48.30
2022-12-15T23:25:35.017Z,48.40
2022-12-15T23:28:39.678Z,47.37
2022-12-15T23:31:44.264Z,47.24
2022-12-15T23:34:48.721Z,47.19
2022-12-15T23:37:53.305Z,46.79
2022-12-15T23:40:59.385Z,47.03
2022-12-15T23:44:03.733Z,45.79
2022-12-15T23:47:08.976Z,46.78
2022-12-15T23:50:13.937Z,45.66
2022-12-15T23:53:18.445Z,46.70
2022-12-15T23:56:26.186Z,46.06
2022-12-15T23:59:30.479Z,46.45
